Time;durP1;ratioP1;P1;durP2;ratioP2;P2;SDS_P1;SDS_P2;PMS_P1;PMS_P2;Temp;Humidity;BMP_temperature;BMP_pressure;BME280_temperature;BME280_humidity;BME280_pressure;Samples;Min_cycle;Max_cycle;Signal;HPM_P1;HPM_P2
2022/12/09 00:00:50;;;;;;;;;62.00;46.00;;;;;;;;5119734;27;45397;-63
2022/12/09 00:03:15;;;;;;;;;63.33;50.67;;;;;;;;5120215;27;45335;-63
2022/12/09 00:05:41;;;;;;;;;61.33;49.00;;;;;;;;5115620;27;45601;-63
2022/12/09 00:08:06;;;;;;;;;57.00;46.00;;;;;;;;5117576;27;45820;-63
2022/12/09 00:10:31;;;;;;;;;61.00;46.00;;;;;;;;5119779;27;45545;-63
2022/12/09 00:12:56;;;;;;;;;52.33;44.33;;;;;;;;5124082;27;45413;-63
2022/12/09 00:15:22;;;;;;;;;61.00;49.00;;;;;;;;5140306;27;45609;-63
2022/12/09 00:17:47;;;;;;;;;67.67;52.33;;;;;;;;5140331;27;45727;-64
2022/12/09 00:20:12;;;;;;;;;58.67;48.33;;;;;;;;5140639;27;45387;-63
2022/12/09 00:22:37;;;;;;;;;58.00;43.33;;;;;;;;5140351;27;45891;-63
2022/12/09 00:25:03;;;;;;;;;59.00;44.00;;;;;;;;5118563;27;46361;-63
2022/12/09 00:27:28;;;;;;;;;58.33;45.00;;;;;;;;5099233;27;45453;-63
2022/12/09 00:29:53;;;;;;;;;55.00;43.00;;;;;;;;5104277;27;45428;-63
2022/12/09 00:32:18;;;;;;;;;51.00;41.50;;;;;;;;5119693;27;45445;-63
2022/12/09 00:34:43;;;;;;;;;57.33;45.67;;;;;;;;5119268;27;45310;-63
2022/12/09 00:37:09;;;;;;;;;44.00;41.00;;;;;;;;5118945;27;45528;-63
2022/12/09 00:39:34;;;;;;;;;46.67;42.00;;;;;;;;5119228;27;45483;-63
2022/12/09 00:41:59;;;;;;;;;61.00;44.33;;;;;;;;5117343;27;45564;-63
2022/12/09 00:44:24;;;;;;;;;44.67;37.67;;;;;;;;5114279;27;46149;-64
2022/12/09 00:46:49;;;;;;;;;49.67;40.67;;;;;;;;5118139;27;46736;-63
2022/12/09 00:49:15;;;;;;;;;47.33;39.67;;;;;;;;5119157;27;45370;-63
2022/12/09 00:51:40;;;;;;;;;51.67;40.67;;;;;;;;5119170;27;45423;-64
2022/12/09 00:54:05;;;;;;;;;38.33;37.67;;;;;;;;5104459;27;46281;-63
2022/12/09 00:56:30;;;;;;;;;44.33;37.67;;;;;;;;5098421;27;45332;-63
2022/12/09 00:58:57;;;;;;;;;35.00;30.33;;;;;;;;5098214;27;45312;-63
2022/12/09 01:01:22;;;;;;;;;41.33;32.33;;;;;;;;5098735;27;45378;-64
2022/12/09 01:03:47;;;;;;;;;40.67;36.67;;;;;;;;5101401;27;45404;-64
2022/12/09 01:06:17;;;;;;;;;42.33;35.00;;;;;;;;5139352;27;45329;-64
2022/12/09 01:08:43;;;;;;;;;44.00;37.33;;;;;;;;5139781;27;45398;-64
2022/12/09 01:11:09;;;;;;;;;38.67;37.33;;;;;;;;5110034;27;45468;-63
2022/12/09 01:13:34;;;;;;;;;44.67;38.00;;;;;;;;5118038;27;46832;-63
2022/12/09 01:15:59;;;;;;;;;40.67;34.00;;;;;;;;5118150;27;45232;-64
2022/12/09 01:18:24;;;;;;;;;42.00;35.67;;;;;;;;5118364;27;45389;-63
2022/12/09 01:20:56;;;;;;;;;53.00;38.00;;;;;;;;5118471;27;45412;-64
2022/12/09 01:23:21;;;;;;;;;48.33;38.33;;;;;;;;5118267;27;45729;-64
2022/12/09 01:25:47;;;;;;;;;45.67;40.67;;;;;;;;5118296;27;45502;-64
2022/12/09 01:28:12;;;;;;;;;58.33;46.67;;;;;;;;5107682;27;45407;-64
2022/12/09 01:30:37;;;;;;;;;64.33;49.00;;;;;;;;5118109;27;45382;-63
2022/12/09 01:33:02;;;;;;;;;64.00;49.67;;;;;;;;5118053;27;45440;-64
2022/12/09 01:35:27;;;;;;;;;64.33;51.67;;;;;;;;5118079;27;45476;-63
2022/12/09 01:37:53;;;;;;;;;58.33;46.00;;;;;;;;5118255;27;45428;-63
2022/12/09 01:40:18;;;;;;;;;68.33;52.00;;;;;;;;5118795;27;45346;-64
2022/12/09 01:42:44;;;;;;;;;58.67;49.33;;;;;;;;5118099;27;46139;-64
2022/12/09 01:45:22;;;;;;;;;71.00;52.67;;;;;;;;5117603;27;45404;-64
2022/12/09 01:47:48;;;;;;;;;61.00;47.00;;;;;;;;5106493;27;45467;-63
2022/12/09 01:50:14;;;;;;;;;46.00;38.33;;;;;;;;5097840;27;45485;-63
2022/12/09 01:52:39;;;;;;;;;60.33;46.00;;;;;;;;5105518;27;45432;-63
2022/12/09 01:55:05;;;;;;;;;65.33;49.33;;;;;;;;5116717;27;45272;-63
2022/12/09 01:57:31;;;;;;;;;54.00;42.67;;;;;;;;5117919;27;45556;-63
2022/12/09 01:59:56;;;;;;;;;68.00;50.00;;;;;;;;5117947;27;45424;-63
2022/12/09 02:02:21;;;;;;;;;66.00;50.33;;;;;;;;5117157;27;46048;-63
2022/12/09 02:04:47;;;;;;;;;66.33;53.33;;;;;;;;5120725;27;45394;-64
2022/12/09 02:07:12;;;;;;;;;59.67;46.67;;;;;;;;5122743;27;45463;-64
2022/12/09 02:09:38;;;;;;;;;68.00;49.33;;;;;;;;5117287;27;45314;-64
2022/12/09 02:12:15;;;;;;;;;62.33;48.00;;;;;;;;5117466;27;45513;-64
2022/12/09 02:14:44;;;;;;;;;62.00;45.67;;;;;;;;5134596;27;45867;-64
2022/12/09 02:17:18;;;;;;;;;61.00;45.00;;;;;;;;5116340;27;45742;-64
2022/12/09 02:20:06;;;;;;;;;57.33;45.67;;;;;;;;5117750;27;45392;-64
2022/12/09 02:22:40;;;;;;;;;65.67;45.33;;;;;;;;5112434;27;46536;-63
2022/12/09 02:25:08;;;;;;;;;57.67;42.00;;;;;;;;5117447;27;45625;-64
2022/12/09 02:27:40;;;;;;;;;65.00;47.00;;;;;;;;5117497;27;45599;-63
2022/12/09 02:30:05;;;;;;;;;59.67;46.67;;;;;;;;5117515;27;45242;-63
2022/12/09 02:32:36;;;;;;;;;63.00;43.33;;;;;;;;5117125;27;47061;-63
2022/12/09 02:35:13;;;;;;;;;54.33;44.33;;;;;;;;5111875;27;45370;-63
2022/12/09 02:37:41;;;;;;;;;59.00;46.00;;;;;;;;5116935;27;45316;-63
2022/12/09 02:40:10;;;;;;;;;57.33;45.00;;;;;;;;5113516;27;45498;-63
2022/12/09 02:42:36;;;;;;;;;64.67;48.67;;;;;;;;5117008;27;47210;-64
2022/12/09 02:45:04;;;;;;;;;53.00;43.00;;;;;;;;5116523;27;45475;-64
2022/12/09 02:47:31;;;;;;;;;55.67;46.00;;;;;;;;5115469;27;45417;-63
2022/12/09 02:50:00;;;;;;;;;60.00;49.00;;;;;;;;5097099;27;45525;-63
2022/12/09 02:52:27;;;;;;;;;58.67;45.00;;;;;;;;5125804;27;45491;-64
2022/12/09 02:54:52;;;;;;;;;65.00;49.00;;;;;;;;5137934;27;45371;-64
2022/12/09 02:57:20;;;;;;;;;58.67;45.33;;;;;;;;5138088;27;45441;-64
2022/12/09 02:59:45;;;;;;;;;54.67;44.33;;;;;;;;5138278;27;45432;-64
2022/12/09 03:02:11;;;;;;;;;71.33;57.33;;;;;;;;5137699;27;46042;-64
2022/12/09 03:04:37;;;;;;;;;58.33;45.67;;;;;;;;5113567;27;45401;-63
2022/12/09 03:07:16;;;;;;;;;50.67;44.33;;;;;;;;5101214;27;45292;-63
2022/12/09 03:09:46;;;;;;;;;55.33;45.33;;;;;;;;5120556;27;45321;-63
2022/12/09 03:12:13;;;;;;;;;62.00;45.33;;;;;;;;5120452;27;45916;-64
2022/12/09 03:14:41;;;;;;;;;58.00;42.33;;;;;;;;5120239;27;45455;-63
2022/12/09 03:17:22;;;;;;;;;60.00;42.00;;;;;;;;5119886;27;45724;-64
2022/12/09 03:19:48;;;;;;;;;51.67;42.00;;;;;;;;5119299;27;45468;-63
2022/12/09 03:22:15;;;;;;;;;56.67;45.33;;;;;;;;5104718;27;46201;-64
2022/12/09 03:24:43;;;;;;;;;49.00;41.33;;;;;;;;5120316;27;45239;-64
2022/12/09 03:27:11;;;;;;;;;48.33;39.00;;;;;;;;5120084;27;45433;-64
2022/12/09 03:29:39;;;;;;;;;50.00;39.00;;;;;;;;5120140;27;45497;-64
2022/12/09 03:32:04;;;;;;;;;53.67;42.67;;;;;;;;5120002;27;46303;-64
2022/12/09 03:34:32;;;;;;;;;56.00;45.00;;;;;;;;5119999;27;45384;-64
2022/12/09 03:36:58;;;;;;;;;55.67;44.00;;;;;;;;5114334;27;45516;-64
2022/12/09 03:39:25;;;;;;;;;50.00;41.00;;;;;;;;5114141;27;45172;-63
2022/12/09 03:41:53;;;;;;;;;44.00;41.00;;;;;;;;5118104;27;46610;-63
2022/12/09 03:44:24;;;;;;;;;54.00;41.33;;;;;;;;5119286;27;45273;-64
2022/12/09 03:46:49;;;;;;;;;58.33;42.67;;;;;;;;5103196;27;45219;-63
2022/12/09 03:49:14;;;;;;;;;43.00;32.00;;;;;;;;5120248;27;45226;-64
2022/12/09 03:51:43;;;;;;;;;45.67;37.00;;;;;;;;5119619;27;45520;-64
2022/12/09 03:54:19;;;;;;;;;58.67;44.67;;;;;;;;5119914;27;45438;-63
2022/12/09 03:56:46;;;;;;;;;47.00;40.00;;;;;;;;5119984;27;45405;-64
2022/12/09 03:59:12;;;;;;;;;49.00;40.67;;;;;;;;5114301;27;45437;-63
2022/12/09 04:01:42;;;;;;;;;47.33;39.00;;;;;;;;5119228;27;46133;-64
2022/12/09 04:04:07;;;;;;;;;7.67;0.00;;;;;;;;5116235;27;45749;-64
2022/12/09 04:06:32;;;;;;;;;56.33;40.67;;;;;;;;5119580;27;45470;-64
2022/12/09 04:08:58;;;;;;;;;36.33;32.33;;;;;;;;5119668;27;45590;-64
2022/12/09 04:11:23;;;;;;;;;54.33;42.00;;;;;;;;5119320;27;45595;-64
2022/12/09 04:13:48;;;;;;;;;51.00;40.00;;;;;;;;5119770;27;45401;-64
2022/12/09 04:16:13;;;;;;;;;37.67;37.67;;;;;;;;5113109;27;45473;-63
2022/12/09 04:18:38;;;;;;;;;28.33;22.00;;;;;;;;5118465;27;45364;-64
2022/12/09 04:21:04;;;;;;;;;46.33;39.33;;;;;;;;5119292;27;46499;-63
2022/12/09 04:23:30;;;;;;;;;48.67;39.00;;;;;;;;5119190;27;45489;-63
2022/12/09 04:25:55;;;;;;;;;58.33;42.67;;;;;;;;5119651;27;45459;-63
2022/12/09 04:28:20;;;;;;;;;45.00;35.33;;;;;;;;5119520;27;45470;-63
2022/12/09 04:30:45;;;;;;;;;49.00;36.00;;;;;;;;5118443;27;46524;-63
2022/12/09 04:33:14;;;;;;;;;46.67;36.33;;;;;;;;5117373;27;45599;-63
2022/12/09 04:35:40;;;;;;;;;51.33;40.33;;;;;;;;5118164;27;45568;-63
2022/12/09 04:38:05;;;;;;;;;46.00;38.00;;;;;;;;5119285;27;45353;-64
2022/12/09 04:40:30;;;;;;;;;42.33;41.00;;;;;;;;5118900;27;46648;-64
2022/12/09 04:42:56;;;;;;;;;45.33;34.00;;;;;;;;5118795;27;45354;-64
2022/12/09 04:45:21;;;;;;;;;41.33;38.33;;;;;;;;5118829;27;45471;-63
2022/12/09 04:47:46;;;;;;;;;41.67;35.67;;;;;;;;5119016;27;45460;-63
2022/12/09 04:50:12;;;;;;;;;40.67;36.33;;;;;;;;5115996;27;45513;-63
2022/12/09 04:52:37;;;;;;;;;45.33;39.00;;;;;;;;5135451;27;45415;-64
2022/12/09 04:55:02;;;;;;;;;46.67;40.33;;;;;;;;5139935;27;45287;-64
2022/12/09 04:57:28;;;;;;;;;40.33;33.33;;;;;;;;5140158;27;45692;-64
2022/12/09 04:59:53;;;;;;;;;39.33;35.33;;;;;;;;5139459;27;46305;-64
2022/12/09 05:02:19;;;;;;;;;49.67;32.00;;;;;;;;5139435;27;45365;-64
2022/12/09 05:04:45;;;;;;;;;38.00;33.33;;;;;;;;5139686;27;45238;-64
2022/12/09 05:07:10;;;;;;;;;36.33;31.00;;;;;;;;5120023;27;45789;-63
2022/12/09 05:09:36;;;;;;;;;41.33;36.33;;;;;;;;5118449;27;45539;-64
2022/12/09 05:12:01;;;;;;;;;46.33;40.33;;;;;;;;5118217;27;45500;-64
2022/12/09 05:14:26;;;;;;;;;43.33;36.67;;;;;;;;5118637;27;45182;-64
2022/12/09 05:16:51;;;;;;;;;40.33;37.67;;;;;;;;5118461;27;45353;-64
2022/12/09 05:19:16;;;;;;;;;44.00;36.33;;;;;;;;5118278;27;46584;-64
2022/12/09 05:21:45;;;;;;;;;47.33;38.33;;;;;;;;5118420;27;45594;-64
2022/12/09 05:24:10;;;;;;;;;43.33;36.00;;;;;;;;5115539;27;45305;-64
2022/12/09 05:26:36;;;;;;;;;43.00;38.00;;;;;;;;5118725;27;45625;-64
2022/12/09 05:29:01;;;;;;;;;41.67;34.67;;;;;;;;5116406;27;46186;-64
2022/12/09 05:31:26;;;;;;;;;38.33;35.67;;;;;;;;5116476;27;45392;-62
2022/12/09 05:33:52;;;;;;;;;39.00;36.00;;;;;;;;5118783;27;45428;-62
2022/12/09 05:36:18;;;;;;;;;25.67;17.33;;;;;;;;5118479;27;45410;-62
2022/12/09 05:38:44;;;;;;;;;40.33;38.00;;;;;;;;5118372;27;46964;-62
2022/12/09 05:41:09;;;;;;;;;46.33;38.00;;;;;;;;5118145;27;45473;-62
2022/12/09 05:43:35;;;;;;;;;42.33;36.67;;;;;;;;5119551;27;45525;-62
2022/12/09 05:46:00;;;;;;;;;38.67;29.00;;;;;;;;5118200;27;45818;-62
2022/12/09 05:48:26;;;;;;;;;37.00;32.00;;;;;;;;5107165;27;46314;-63
2022/12/09 05:51:01;;;;;;;;;45.67;33.00;;;;;;;;5117346;27;45565;-63
2022/12/09 05:53:27;;;;;;;;;45.33;38.67;;;;;;;;5103743;27;45302;-63
2022/12/09 05:55:52;;;;;;;;;46.00;31.33;;;;;;;;5112324;27;45311;-62
2022/12/09 05:58:17;;;;;;;;;38.33;35.67;;;;;;;;5117531;27;46261;-62
2022/12/09 06:00:43;;;;;;;;;45.67;41.00;;;;;;;;5117441;27;45447;-62
2022/12/09 06:03:08;;;;;;;;;36.00;31.67;;;;;;;;5117576;27;45455;-62
2022/12/09 06:05:35;;;;;;;;;41.00;31.67;;;;;;;;5111833;27;45523;-62
2022/12/09 06:08:00;;;;;;;;;41.33;35.00;;;;;;;;5110243;27;45402;-62
2022/12/09 06:10:25;;;;;;;;;45.00;33.00;;;;;;;;5117378;27;45387;-62
2022/12/09 06:12:54;;;;;;;;;47.33;36.67;;;;;;;;5117807;27;45520;-62
2022/12/09 06:15:19;;;;;;;;;34.33;30.67;;;;;;;;5117601;27;45608;-62
2022/12/09 06:17:44;;;;;;;;;79.67;50.00;;;;;;;;5117104;27;46305;-62
2022/12/09 06:20:10;;;;;;;;;47.00;37.67;;;;;;;;5117268;27;45497;-62
2022/12/09 06:22:35;;;;;;;;;43.33;34.67;;;;;;;;5114382;27;45359;-62
2022/12/09 06:25:00;;;;;;;;;77.25;57.50;;;;;;;;5117476;27;45454;-63
2022/12/09 06:27:25;;;;;;;;;89.75;68.00;;;;;;;;5117351;27;47390;-62
2022/12/09 06:29:51;;;;;;;;;61.00;48.67;;;;;;;;5117508;27;45456;-62
2022/12/09 06:32:16;;;;;;;;;55.67;42.00;;;;;;;;5116885;27;45500;-62
2022/12/09 06:34:41;;;;;;;;;47.00;38.00;;;;;;;;5117758;27;45413;-62
2022/12/09 06:37:06;;;;;;;;;42.00;38.00;;;;;;;;5116890;27;46599;-62
2022/12/09 06:39:32;;;;;;;;;53.00;40.33;;;;;;;;5112356;27;45432;-62
2022/12/09 06:41:58;;;;;;;;;42.00;38.33;;;;;;;;5103433;27;45304;-62
2022/12/09 06:44:23;;;;;;;;;41.67;34.33;;;;;;;;5120896;27;45255;-63
2022/12/09 06:46:48;;;;;;;;;61.00;47.67;;;;;;;;5114501;27;46499;-63
2022/12/09 06:49:14;;;;;;;;;54.00;42.67;;;;;;;;5120581;27;45316;-63
2022/12/09 06:51:39;;;;;;;;;42.67;36.33;;;;;;;;5120995;27;45380;-63
2022/12/09 06:54:05;;;;;;;;;41.00;38.67;;;;;;;;5121291;27;45397;-63
2022/12/09 06:56:31;;;;;;;;;45.67;35.67;;;;;;;;5120682;27;46672;-63
2022/12/09 06:58:56;;;;;;;;;40.67;32.00;;;;;;;;5120793;27;45376;-63
2022/12/09 07:01:22;;;;;;;;;58.00;41.33;;;;;;;;5116998;27;45354;-63
2022/12/09 07:03:49;;;;;;;;;40.33;35.67;;;;;;;;5132016;27;45414;-63
2022/12/09 07:06:26;;;;;;;;;42.33;38.33;;;;;;;;5141485;27;46490;-63
2022/12/09 07:08:52;;;;;;;;;77.00;58.75;;;;;;;;5141101;27;45406;-63
2022/12/09 07:11:17;;;;;;;;;37.33;32.00;;;;;;;;5141453;27;45411;-63
2022/12/09 07:13:42;;;;;;;;;56.00;42.33;;;;;;;;5141868;27;45241;-63
2022/12/09 07:16:07;;;;;;;;;44.33;40.00;;;;;;;;5121402;27;45738;-63
2022/12/09 07:18:33;;;;;;;;;46.33;41.33;;;;;;;;5109167;27;45345;-63
2022/12/09 07:21:04;;;;;;;;;37.33;32.67;;;;;;;;5115317;27;45465;-63
2022/12/09 07:23:29;;;;;;;;;43.33;39.67;;;;;;;;5120051;27;45428;-63
2022/12/09 07:25:55;;;;;;;;;50.00;42.33;;;;;;;;5120260;27;45282;-63
2022/12/09 07:28:21;;;;;;;;;44.67;39.33;;;;;;;;5120144;27;45473;-63
2022/12/09 07:30:46;;;;;;;;;39.67;35.33;;;;;;;;5120308;27;45346;-63
2022/12/09 07:33:11;;;;;;;;;50.00;42.33;;;;;;;;5120369;27;45169;-63
2022/12/09 07:35:36;;;;;;;;;41.33;36.00;;;;;;;;5104632;27;45960;-63
2022/12/09 07:38:01;;;;;;;;;37.00;33.33;;;;;;;;5119247;27;45598;-63
2022/12/09 07:40:27;;;;;;;;;50.33;42.00;;;;;;;;5113786;27;45559;-63
2022/12/09 07:42:52;;;;;;;;;43.67;35.33;;;;;;;;5115046;27;45389;-62
2022/12/09 07:45:17;;;;;;;;;46.67;38.33;;;;;;;;5119528;27;45641;-62
2022/12/09 07:47:44;;;;;;;;;48.00;43.67;;;;;;;;5119128;27;45615;-63
2022/12/09 07:50:09;;;;;;;;;54.33;44.33;;;;;;;;5119703;27;45354;-63
2022/12/09 07:52:34;;;;;;;;;53.67;41.67;;;;;;;;5119402;27;45565;-64
2022/12/09 07:55:00;;;;;;;;;46.00;39.67;;;;;;;;5119265;27;46281;-64
2022/12/09 07:57:26;;;;;;;;;35.67;32.33;;;;;;;;5119868;27;46908;-63
2022/12/09 07:59:52;;;;;;;;;45.00;39.00;;;;;;;;5115597;27;45385;-63
2022/12/09 08:02:17;;;;;;;;;50.67;41.33;;;;;;;;5119500;27;45505;-64
2022/12/09 08:04:42;;;;;;;;;47.33;42.00;;;;;;;;5133207;27;46643;-64
2022/12/09 08:07:07;;;;;;;;;52.00;40.33;;;;;;;;5140668;27;45420;-63
2022/12/09 08:09:33;;;;;;;;;46.67;42.67;;;;;;;;5140239;27;45271;-63
2022/12/09 08:11:58;;;;;;;;;58.67;46.33;;;;;;;;5140385;27;45335;-63
2022/12/09 08:14:23;;;;;;;;;49.00;44.67;;;;;;;;5137405;27;45495;-64
2022/12/09 08:16:48;;;;;;;;;55.67;44.00;;;;;;;;5119140;27;45550;-63
2022/12/09 08:19:13;;;;;;;;;58.33;45.33;;;;;;;;5119725;27;45474;-64
2022/12/09 08:21:39;;;;;;;;;53.67;45.67;;;;;;;;5119446;27;45433;-63
2022/12/09 08:24:06;;;;;;;;;52.67;44.00;;;;;;;;5118998;27;46227;-64
2022/12/09 08:26:31;;;;;;;;;70.67;52.33;;;;;;;;5118976;27;45571;-64
2022/12/09 08:28:57;;;;;;;;;60.67;49.00;;;;;;;;5118957;27;45404;-64
2022/12/09 08:31:23;;;;;;;;;42.67;39.67;;;;;;;;5117834;27;45371;-64
2022/12/09 08:33:48;;;;;;;;;61.67;47.00;;;;;;;;5118343;27;46610;-64
2022/12/09 08:36:15;;;;;;;;;41.67;39.00;;;;;;;;5118894;27;45396;-64
2022/12/09 08:38:41;;;;;;;;;43.67;39.33;;;;;;;;5119333;27;45281;-64
2022/12/09 08:41:16;;;;;;;;;53.33;44.33;;;;;;;;5119370;27;45407;-64
2022/12/09 08:43:42;;;;;;;;;50.33;42.00;;;;;;;;5119169;27;47174;-64
2022/12/09 08:46:07;;;;;;;;;53.00;43.00;;;;;;;;5119014;27;45331;-64
2022/12/09 08:48:36;;;;;;;;;48.67;41.00;;;;;;;;5118962;27;45388;-64
2022/12/09 08:51:02;;;;;;;;;48.67;39.00;;;;;;;;5119524;27;45448;-64
2022/12/09 08:53:27;;;;;;;;;51.00;43.00;;;;;;;;5118740;27;46422;-64
2022/12/09 08:55:52;;;;;;;;;52.00;42.33;;;;;;;;5118943;27;45443;-64
2022/12/09 08:58:17;;;;;;;;;55.00;45.00;;;;;;;;5119130;27;45417;-64
2022/12/09 09:00:43;;;;;;;;;50.00;42.33;;;;;;;;5119259;27;45432;-64
2022/12/09 09:03:08;;;;;;;;;55.00;43.33;;;;;;;;5118842;27;46276;-64
2022/12/09 09:05:33;;;;;;;;;46.00;41.67;;;;;;;;5118466;27;45315;-64
2022/12/09 09:07:58;;;;;;;;;53.67;42.00;;;;;;;;5119043;27;45471;-64
2022/12/09 09:10:24;;;;;;;;;51.33;41.33;;;;;;;;5119011;27;45297;-64
2022/12/09 09:12:49;;;;;;;;;50.33;40.67;;;;;;;;5118718;27;46561;-64
2022/12/09 09:15:14;;;;;;;;;49.00;41.33;;;;;;;;5118626;27;45385;-64
2022/12/09 09:17:39;;;;;;;;;98.75;89.50;;;;;;;;5117676;27;45451;-63
2022/12/09 09:20:05;;;;;;;;;57.33;45.33;;;;;;;;5119026;27;45365;-63
2022/12/09 09:22:30;;;;;;;;;66.33;50.00;;;;;;;;5118074;27;46235;-63
2022/12/09 09:24:55;;;;;;;;;57.67;46.33;;;;;;;;5118449;27;45391;-63
2022/12/09 09:27:21;;;;;;;;;66.00;52.00;;;;;;;;5118864;27;45382;-63
2022/12/09 09:29:46;;;;;;;;;63.33;50.33;;;;;;;;5118662;27;45566;-63
2022/12/09 09:32:12;;;;;;;;;63.67;50.00;;;;;;;;5118412;27;45369;-63
2022/12/09 09:34:37;;;;;;;;;56.67;44.33;;;;;;;;5118236;27;45561;-63
2022/12/09 09:37:02;;;;;;;;;62.33;48.00;;;;;;;;5118426;27;45468;-63
2022/12/09 09:39:27;;;;;;;;;53.33;40.33;;;;;;;;5118770;27;45378;-63
2022/12/09 09:41:54;;;;;;;;;57.33;46.33;;;;;;;;5118214;27;46193;-63
2022/12/09 09:44:38;;;;;;;;;78.75;62.50;;;;;;;;5118367;27;45456;-63
2022/12/09 09:47:15;;;;;;;;;66.33;52.33;;;;;;;;5118357;27;45340;-63
2022/12/09 09:49:40;;;;;;;;;71.00;54.33;;;;;;;;5118248;27;45325;-63
2022/12/09 09:52:09;;;;;;;;;93.50;69.75;;;;;;;;5117888;27;45668;-63
2022/12/09 09:54:35;;;;;;;;;85.50;66.50;;;;;;;;5118267;27;45428;-63
2022/12/09 09:57:11;;;;;;;;;89.75;67.50;;;;;;;;5118062;27;45251;-63
2022/12/09 09:59:48;;;;;;;;;83.50;60.00;;;;;;;;5117957;27;45487;-63
2022/12/09 10:02:42;;;;;;;;;76.50;58.25;;;;;;;;5117300;27;45640;-63
2022/12/09 10:05:25;;;;;;;;;61.33;47.67;;;;;;;;5093939;27;45539;-63
2022/12/09 10:07:53;;;;;;;;;53.00;46.33;;;;;;;;5095249;27;45449;-63
2022/12/09 10:10:21;;;;;;;;;63.00;46.33;;;;;;;;5094944;27;45470;-63
2022/12/09 10:12:46;;;;;;;;;61.00;45.33;;;;;;;;5094614;27;46159;-63
2022/12/09 10:15:13;;;;;;;;;62.67;48.00;;;;;;;;5094908;27;45369;-63
2022/12/09 10:17:49;;;;;;;;;65.33;49.00;;;;;;;;5097954;27;45410;-63
2022/12/09 10:20:19;;;;;;;;;59.00;49.33;;;;;;;;5098628;27;45578;-63
2022/12/09 10:23:01;;;;;;;;;58.00;47.33;;;;;;;;5098082;27;47222;-63
2022/12/09 10:25:34;;;;;;;;;55.67;44.67;;;;;;;;5098550;27;45376;-63
2022/12/09 10:28:12;;;;;;;;;54.33;44.00;;;;;;;;5098379;27;45407;-63
2022/12/09 10:30:38;;;;;;;;;58.00;44.00;;;;;;;;5098564;27;45408;-63
2022/12/09 10:33:04;;;;;;;;;59.67;46.33;;;;;;;;5080889;27;46267;-63
2022/12/09 10:35:29;;;;;;;;;58.00;45.67;;;;;;;;5097880;27;45335;-63
2022/12/09 10:38:03;;;;;;;;;63.67;53.00;;;;;;;;5098255;27;45389;-63
2022/12/09 10:40:35;;;;;;;;;55.33;42.00;;;;;;;;5100000;27;45388;-63
2022/12/09 10:43:35;;;;;;;;;58.00;46.00;;;;;;;;5120894;27;47340;-63
2022/12/09 10:46:05;;;;;;;;;63.00;48.33;;;;;;;;5121032;27;45528;-63
2022/12/09 10:48:42;;;;;;;;;56.00;47.67;;;;;;;;5120741;27;45403;-63
2022/12/09 10:51:26;;;;;;;;;52.33;43.33;;;;;;;;5120304;27;45773;-63
2022/12/09 10:53:56;;;;;;;;;58.00;46.33;;;;;;;;5120623;27;46544;-63
2022/12/09 10:56:26;;;;;;;;;72.00;56.75;;;;;;;;5120738;27;45373;-63
2022/12/09 10:59:08;;;;;;;;;64.00;49.00;;;;;;;;5121116;27;45434;-63
2022/12/09 11:01:51;;;;;;;;;62.33;51.33;;;;;;;;5121171;27;45230;-63
2022/12/09 11:04:43;;;;;;;;;67.00;55.00;;;;;;;;5120429;27;46200;-63
2022/12/09 11:07:11;;;;;;;;;64.00;46.67;;;;;;;;5116190;27;45467;-63
2022/12/09 11:09:47;;;;;;;;;62.67;49.33;;;;;;;;5120618;27;45365;-63
2022/12/09 11:12:15;;;;;;;;;61.67;48.67;;;;;;;;5120850;27;45416;-63
2022/12/09 11:14:48;;;;;;;;;60.33;48.00;;;;;;;;5120499;27;46559;-63
2022/12/09 11:17:19;;;;;;;;;61.00;47.67;;;;;;;;5120318;27;45481;-63
2022/12/09 11:19:48;;;;;;;;;64.00;51.33;;;;;;;;5120551;27;45410;-63
2022/12/09 11:22:20;;;;;;;;;62.00;50.67;;;;;;;;5120557;27;45407;-63
2022/12/09 11:24:45;;;;;;;;;74.00;56.33;;;;;;;;5120015;27;45432;-63
2022/12/09 11:27:28;;;;;;;;;68.00;51.00;;;;;;;;5120227;27;45306;-63
2022/12/09 11:30:05;;;;;;;;;69.33;54.00;;;;;;;;5120553;27;45524;-63
2022/12/09 11:32:30;;;;;;;;;57.00;44.00;;;;;;;;5120613;27;45396;-63
2022/12/09 11:34:56;;;;;;;;;43.33;37.67;;;;;;;;5120116;27;46112;-63
2022/12/09 11:37:21;;;;;;;;;57.33;46.67;;;;;;;;5120255;27;45471;-63
2022/12/09 11:39:49;;;;;;;;;66.00;47.33;;;;;;;;5120031;27;45455;-63
2022/12/09 11:42:21;;;;;;;;;59.33;46.67;;;;;;;;5120306;27;45444;-63
2022/12/09 11:44:49;;;;;;;;;67.67;52.00;;;;;;;;5119981;27;46134;-63
2022/12/09 11:47:24;;;;;;;;;61.00;51.00;;;;;;;;5119991;27;45414;-63
2022/12/09 11:49:51;;;;;;;;;53.33;44.67;;;;;;;;5119912;27;45350;-63
2022/12/09 11:52:16;;;;;;;;;65.33;47.00;;;;;;;;5120067;27;45199;-63
2022/12/09 11:54:44;;;;;;;;;42.67;39.67;;;;;;;;5118577;27;47530;-63
2022/12/09 11:57:16;;;;;;;;;62.33;51.33;;;;;;;;5119993;27;46156;-63
2022/12/09 11:59:47;;;;;;;;;72.75;56.00;;;;;;;;5120034;27;45332;-63
2022/12/09 12:02:15;;;;;;;;;60.67;46.00;;;;;;;;5120016;27;45460;-63
2022/12/09 12:05:03;;;;;;;;;65.33;50.67;;;;;;;;5119586;27;45437;-63
2022/12/09 12:07:28;;;;;;;;;56.33;43.33;;;;;;;;5035677;28;45447;-63
2022/12/09 12:09:55;;;;;;;;;42.67;37.00;;;;;;;;5036123;28;45522;-63
2022/12/09 12:12:38;;;;;;;;;46.33;38.67;;;;;;;;5036037;28;45481;-63
2022/12/09 12:15:15;;;;;;;;;60.00;48.33;;;;;;;;5035775;28;46313;-63
2022/12/09 12:17:42;;;;;;;;;54.00;40.00;;;;;;;;5035539;28;45433;-63
2022/12/09 12:20:10;;;;;;;;;55.33;44.00;;;;;;;;5036210;28;45565;-63
2022/12/09 12:22:54;;;;;;;;;39.00;36.00;;;;;;;;5035801;28;45274;-63
2022/12/09 12:25:29;;;;;;;;;47.67;40.67;;;;;;;;5035670;28;46406;-63
2022/12/09 12:28:03;;;;;;;;;36.00;34.33;;;;;;;;5035517;28;45345;-63
2022/12/09 12:30:48;;;;;;;;;24.33;22.00;;;;;;;;5035878;28;45338;-63
2022/12/09 12:33:25;;;;;;;;;30.00;23.33;;;;;;;;5035589;28;45671;-63
2022/12/09 12:36:05;;;;;;;;;27.00;25.00;;;;;;;;5035561;28;45507;-63
2022/12/09 12:38:43;;;;;;;;;38.33;33.33;;;;;;;;5035440;28;45550;-63
2022/12/09 12:41:23;;;;;;;;;26.00;23.67;;;;;;;;5035566;28;45460;-63
2022/12/09 12:46:53;;;;;;;;;48.33;37.33;;;;;;;;5118937;27;45451;-63
2022/12/09 12:49:37;;;;;;;;;30.67;29.00;;;;;;;;5117381;27;45492;-63
2022/12/09 12:52:05;;;;;;;;;34.33;28.00;;;;;;;;5119124;27;45398;-63
2022/12/09 12:54:38;;;;;;;;;22.00;20.00;;;;;;;;5119180;27;45310;-63
2022/12/09 12:57:12;;;;;;;;;30.00;29.00;;;;;;;;5118679;27;45471;-63
2022/12/09 12:59:43;;;;;;;;;40.00;34.33;;;;;;;;5118857;27;45830;-63
2022/12/09 13:02:22;;;;;;;;;45.33;37.33;;;;;;;;5119174;27;45480;-63
2022/12/09 13:04:50;;;;;;;;;35.67;35.33;;;;;;;;5119256;27;45404;-63
2022/12/09 13:07:26;;;;;;;;;37.67;31.00;;;;;;;;5118631;27;46446;-63
2022/12/09 13:10:14;;;;;;;;;35.33;33.67;;;;;;;;5118620;27;45339;-63
2022/12/09 13:12:54;;;;;;;;;36.67;35.00;;;;;;;;5107609;27;45497;-63
2022/12/09 13:15:25;;;;;;;;;27.67;27.67;;;;;;;;5118945;27;45329;-63
2022/12/09 13:17:50;;;;;;;;;34.00;28.67;;;;;;;;5118517;27;46357;-63
2022/12/09 13:20:23;;;;;;;;;38.33;28.33;;;;;;;;5118605;27;45398;-63
2022/12/09 13:23:07;;;;;;;;;78.25;60.25;;;;;;;;5118656;27;45261;-63
2022/12/09 13:25:32;;;;;;;;;95.25;85.50;;;;;;;;5118878;27;45459;-63
2022/12/09 13:28:02;;;;;;;;;58.67;47.33;;;;;;;;5118424;27;45616;-63
2022/12/09 13:30:37;;;;;;;;;40.67;33.00;;;;;;;;5118355;27;45624;-63
2022/12/09 13:33:20;;;;;;;;;38.67;32.33;;;;;;;;5118645;27;45264;-63
2022/12/09 13:36:05;;;;;;;;;45.00;38.00;;;;;;;;5118750;27;45343;-63
2022/12/09 13:38:34;;;;;;;;;58.33;49.00;;;;;;;;5118141;27;45896;-63
2022/12/09 13:40:59;;;;;;;;;33.67;32.00;;;;;;;;5118079;27;45454;-63
2022/12/09 13:43:26;;;;;;;;;31.00;30.00;;;;;;;;5118539;27;45405;-63
2022/12/09 13:45:59;;;;;;;;;43.00;37.33;;;;;;;;5118315;27;45405;-63
2022/12/09 13:48:37;;;;;;;;;40.33;27.67;;;;;;;;5117717;27;46198;-63
2022/12/09 13:51:02;;;;;;;;;36.67;35.00;;;;;;;;5116951;27;45366;-63
2022/12/09 13:53:40;;;;;;;;;46.33;38.33;;;;;;;;5118070;27;45409;-63
2022/12/09 13:56:17;;;;;;;;;49.33;37.67;;;;;;;;5118315;27;45279;-63
2022/12/09 13:58:45;;;;;;;;;38.00;33.00;;;;;;;;5117906;27;46997;-63
2022/12/09 14:01:11;;;;;;;;;42.33;35.33;;;;;;;;5118035;27;45511;-63
2022/12/09 14:03:47;;;;;;;;;62.67;50.00;;;;;;;;5118055;27;45385;-63
2022/12/09 14:06:20;;;;;;;;;55.67;45.00;;;;;;;;5118181;27;45359;-63
2022/12/09 14:08:48;;;;;;;;;50.33;40.00;;;;;;;;5117452;27;45494;-63
2022/12/09 14:11:32;;;;;;;;;40.33;33.00;;;;;;;;5117988;27;45228;-63
2022/12/09 14:14:16;;;;;;;;;67.33;51.00;;;;;;;;5118118;27;45382;-63
2022/12/09 14:16:42;;;;;;;;;85.25;62.00;;;;;;;;5117883;27;45360;-63
2022/12/09 14:19:23;;;;;;;;;71.00;54.25;;;;;;;;5117426;27;46392;-63
2022/12/09 14:22:08;;;;;;;;;92.25;72.00;;;;;;;;5117249;27;45479;-63
2022/12/09 14:24:34;;;;;;;;;62.67;50.67;;;;;;;;5117595;27;45464;-63
2022/12/09 14:26:59;;;;;;;;;46.33;39.33;;;;;;;;5117885;27;45512;-63